sensor_id;sensor_type;location;lat;lon;timestamp;pressure;altitude;pressure_sealevel;temperature;humidity
61484;BME280;47349;55.640;37.692;2023-04-16T00:01:34;100753.34;;;4.44;35.17
61484;BME280;47349;55.640;37.692;2023-04-16T00:04:01;100755.06;;;4.45;34.85
61484;BME280;47349;55.640;37.692;2023-04-16T00:06:29;100755.06;;;4.45;35.42
61484;BME280;47349;55.640;37.692;2023-04-16T00:08:55;100760.16;;;4.48;35.76
61484;BME280;47349;55.640;37.692;2023-04-16T00:11:22;100765.00;;;4.54;35.76
61484;BME280;47349;55.640;37.692;2023-04-16T00:13:49;100765.00;;;4.54;35.12
61484;BME280;47349;55.640;37.692;2023-04-16T00:16:16;100763.88;;;4.46;35.45
61484;BME280;47349;55.640;37.692;2023-04-16T00:18:43;100759.31;;;4.35;35.96
61484;BME280;47349;55.640;37.692;2023-04-16T00:21:10;100760.06;;;4.37;36.18
61484;BME280;47349;55.640;37.692;2023-04-16T00:23:37;100753.81;;;4.25;35.20
61484;BME280;47349;55.640;37.692;2023-04-16T00:26:04;100752.97;;;4.25;35.76
61484;BME280;47349;55.640;37.692;2023-04-16T00:28:30;100754.06;;;4.22;36.03
61484;BME280;47349;55.640;37.692;2023-04-16T00:30:57;100757.88;;;4.18;35.76
61484;BME280;47349;55.640;37.692;2023-04-16T00:33:25;100754.81;;;4.11;36.29
61484;BME280;47349;55.640;37.692;2023-04-16T00:35:51;100752.25;;;4.10;36.40
61484;BME280;47349;55.640;37.692;2023-04-16T00:38:19;100758.72;;;4.06;36.56
61484;BME280;47349;55.640;37.692;2023-04-16T00:40:46;100763.63;;;4.12;36.58
61484;BME280;47349;55.640;37.692;2023-04-16T00:43:23;100765.53;;;4.10;36.33
61484;BME280;47349;55.640;37.692;2023-04-16T00:45:51;100761.06;;;4.10;37.12
61484;BME280;47349;55.640;37.692;2023-04-16T00:48:19;100766.16;;;4.13;36.66
61484;BME280;47349;55.640;37.692;2023-04-16T00:50:46;100762.78;;;4.11;37.19
61484;BME280;47349;55.640;37.692;2023-04-16T00:53:14;100762.03;;;4.09;37.21
61484;BME280;47349;55.640;37.692;2023-04-16T00:55:41;100761.72;;;4.01;36.97
61484;BME280;47349;55.640;37.692;2023-04-16T00:58:08;100760.44;;;3.94;37.33
61484;BME280;47349;55.640;37.692;2023-04-16T01:00:35;100759.59;;;3.94;36.74
61484;BME280;47349;55.640;37.692;2023-04-16T01:03:02;100754.50;;;3.91;37.04
61484;BME280;47349;55.640;37.692;2023-04-16T01:05:29;100758.22;;;3.88;37.79
61484;BME280;47349;55.640;37.692;2023-04-16T01:07:59;100748.16;;;3.93;37.63
61484;BME280;47349;55.640;37.692;2023-04-16T01:10:26;100754.94;;;3.97;37.50
61484;BME280;47349;55.640;37.692;2023-04-16T01:12:53;100752.28;;;3.97;37.42
61484;BME280;47349;55.640;37.692;2023-04-16T01:15:20;100753.22;;;3.96;37.18
61484;BME280;47349;55.640;37.692;2023-04-16T01:17:47;100751.97;;;4.02;37.68
61484;BME280;47349;55.640;37.692;2023-04-16T01:20:14;100751.31;;;3.98;37.78
61484;BME280;47349;55.640;37.692;2023-04-16T01:22:41;100754.81;;;3.99;37.67
61484;BME280;47349;55.640;37.692;2023-04-16T01:25:12;100753.56;;;3.92;36.90
61484;BME280;47349;55.640;37.692;2023-04-16T01:27:39;100753.44;;;3.93;37.74
61484;BME280;47349;55.640;37.692;2023-04-16T01:30:06;100747.72;;;3.86;37.35
61484;BME280;47349;55.640;37.692;2023-04-16T01:32:45;100755.66;;;3.86;37.81
61484;BME280;47349;55.640;37.692;2023-04-16T01:35:12;100753.56;;;3.79;37.71
61484;BME280;47349;55.640;37.692;2023-04-16T01:37:38;100756.41;;;3.76;38.31
61484;BME280;47349;55.640;37.692;2023-04-16T01:40:06;100758.75;;;3.80;38.86
61484;BME280;47349;55.640;37.692;2023-04-16T01:42:33;100755.06;;;3.83;38.12
61484;BME280;47349;55.640;37.692;2023-04-16T01:45:00;100755.13;;;3.81;37.81
61484;BME280;47349;55.640;37.692;2023-04-16T01:47:29;100757.69;;;3.83;38.08
61484;BME280;47349;55.640;37.692;2023-04-16T01:49:56;100759.06;;;3.89;38.42
61484;BME280;47349;55.640;37.692;2023-04-16T01:52:22;100754.63;;;3.89;38.04
61484;BME280;47349;55.640;37.692;2023-04-16T01:54:50;100760.03;;;3.88;37.99
61484;BME280;47349;55.640;37.692;2023-04-16T01:57:17;100754.94;;;3.84;37.74
61484;BME280;47349;55.640;37.692;2023-04-16T01:59:44;100761.28;;;3.82;38.42
61484;BME280;47349;55.640;37.692;2023-04-16T02:02:12;100758.31;;;3.86;38.62
61484;BME280;47349;55.640;37.692;2023-04-16T02:04:41;100761.09;;;3.85;38.24
61484;BME280;47349;55.640;37.692;2023-04-16T02:07:08;100760.44;;;3.81;39.12
61484;BME280;47349;55.640;37.692;2023-04-16T02:09:36;100754.28;;;3.81;39.37
61484;BME280;47349;55.640;37.692;2023-04-16T02:12:05;100759.81;;;3.78;38.67
61484;BME280;47349;55.640;37.692;2023-04-16T02:14:32;100758.97;;;3.77;38.68
61484;BME280;47349;55.640;37.692;2023-04-16T02:17:00;100765.53;;;3.72;38.38
61484;BME280;47349;55.640;37.692;2023-04-16T02:19:35;100761.63;;;3.65;38.61
61484;BME280;47349;55.640;37.692;2023-04-16T02:22:03;100756.81;;;3.57;38.67
61484;BME280;47349;55.640;37.692;2023-04-16T02:24:30;100759.38;;;3.58;39.52
61484;BME280;47349;55.640;37.692;2023-04-16T02:26:58;100760.13;;;3.60;39.05
61484;BME280;47349;55.640;37.692;2023-04-16T02:29:25;100764.69;;;3.58;39.18
61484;BME280;47349;55.640;37.692;2023-04-16T02:31:59;100766.38;;;3.59;38.87
61484;BME280;47349;55.640;37.692;2023-04-16T02:34:28;100754.94;;;3.59;39.08
61484;BME280;47349;55.640;37.692;2023-04-16T02:36:55;100751.97;;;3.64;39.24
61484;BME280;47349;55.640;37.692;2023-04-16T02:39:24;100759.16;;;3.61;39.04
61484;BME280;47349;55.640;37.692;2023-04-16T02:41:51;100761.19;;;3.58;39.50
61484;BME280;47349;55.640;37.692;2023-04-16T02:44:19;100761.50;;;3.53;40.12
61484;BME280;47349;55.640;37.692;2023-04-16T02:46:46;100766.81;;;3.53;40.61
61484;BME280;47349;55.640;37.692;2023-04-16T02:49:14;100764.47;;;3.61;40.33
61484;BME280;47349;55.640;37.692;2023-04-16T02:51:41;100768.19;;;3.59;40.29
61484;BME280;47349;55.640;37.692;2023-04-16T02:54:08;100774.88;;;3.65;40.93
61484;BME280;47349;55.640;37.692;2023-04-16T02:56:35;100774.97;;;3.63;40.74
61484;BME280;47349;55.640;37.692;2023-04-16T02:59:01;100772.09;;;3.66;40.86
61484;BME280;47349;55.640;37.692;2023-04-16T03:01:29;100776.56;;;3.66;40.45
61484;BME280;47349;55.640;37.692;2023-04-16T03:03:56;100782.06;;;3.63;40.94
61484;BME280;47349;55.640;37.692;2023-04-16T03:06:23;100770.19;;;3.55;41.17
61484;BME280;47349;55.640;37.692;2023-04-16T03:08:49;100774.94;;;3.50;41.16
61484;BME280;47349;55.640;37.692;2023-04-16T03:11:16;100772.09;;;3.53;40.95
61484;BME280;47349;55.640;37.692;2023-04-16T03:13:43;100781.22;;;3.49;39.84
61484;BME280;47349;55.640;37.692;2023-04-16T03:16:10;100774.00;;;3.51;40.84
61484;BME280;47349;55.640;37.692;2023-04-16T03:18:38;100775.69;;;3.52;41.05
61484;BME280;47349;55.640;37.692;2023-04-16T03:21:04;100779.75;;;3.58;40.99
61484;BME280;47349;55.640;37.692;2023-04-16T03:23:31;100780.16;;;3.65;40.70
61484;BME280;47349;55.640;37.692;2023-04-16T03:25:59;100783.16;;;3.73;40.67
61484;BME280;47349;55.640;37.692;2023-04-16T03:28:26;100777.84;;;3.73;40.54
61484;BME280;47349;55.640;37.692;2023-04-16T03:30:53;100777.44;;;3.79;41.14
61484;BME280;47349;55.640;37.692;2023-04-16T03:33:20;100774.78;;;3.79;41.04
61484;BME280;47349;55.640;37.692;2023-04-16T03:35:56;100783.56;;;3.79;41.25
61484;BME280;47349;55.640;37.692;2023-04-16T03:38:27;100776.47;;;3.80;41.35
61484;BME280;47349;55.640;37.692;2023-04-16T03:40:55;100775.41;;;3.82;41.58
61484;BME280;47349;55.640;37.692;2023-04-16T03:43:22;100778.59;;;3.88;42.04
61484;BME280;47349;55.640;37.692;2023-04-16T03:45:49;100776.56;;;3.91;41.76
61484;BME280;47349;55.640;37.692;2023-04-16T03:48:19;100779.75;;;3.96;41.54
61484;BME280;47349;55.640;37.692;2023-04-16T03:50:46;100780.81;;;4.06;41.96
61484;BME280;47349;55.640;37.692;2023-04-16T03:53:15;100779.31;;;4.15;41.39
61484;BME280;47349;55.640;37.692;2023-04-16T03:55:42;100777.09;;;4.22;41.50
61484;BME280;47349;55.640;37.692;2023-04-16T03:58:09;100778.06;;;4.21;41.61
61484;BME280;47349;55.640;37.692;2023-04-16T04:00:36;100781.13;;;4.27;41.35
61484;BME280;47349;55.640;37.692;2023-04-16T04:03:11;100773.34;;;4.37;40.94
61484;BME280;47349;55.640;37.692;2023-04-16T04:05:39;100777.16;;;4.46;41.01
61484;BME280;47349;55.640;37.692;2023-04-16T04:08:09;100777.75;;;4.49;40.57
61484;BME280;47349;55.640;37.692;2023-04-16T04:10:37;100784.34;;;4.56;40.37
61484;BME280;47349;55.640;37.692;2023-04-16T04:13:10;100784.75;;;4.63;40.56
61484;BME280;47349;55.640;37.692;2023-04-16T04:15:52;100783.22;;;4.72;40.43
61484;BME280;47349;55.640;37.692;2023-04-16T04:18:33;100780.38;;;4.75;40.12
61484;BME280;47349;55.640;37.692;2023-04-16T04:21:14;100777.97;;;4.83;39.82
61484;BME280;47349;55.640;37.692;2023-04-16T04:23:55;100772.97;;;4.91;39.30
61484;BME280;47349;55.640;37.692;2023-04-16T04:26:33;100769.84;;;4.97;40.02
61484;BME280;47349;55.640;37.692;2023-04-16T04:29:04;100774.47;;;5.06;39.35
61484;BME280;47349;55.640;37.692;2023-04-16T04:31:48;100769.91;;;5.08;40.04
61484;BME280;47349;55.640;37.692;2023-04-16T04:34:33;100769.09;;;5.08;39.76
61484;BME280;47349;55.640;37.692;2023-04-16T04:37:00;100769.41;;;5.03;39.35
61484;BME280;47349;55.640;37.692;2023-04-16T04:39:31;100768.19;;;5.07;39.32
61484;BME280;47349;55.640;37.692;2023-04-16T04:42:00;100773.19;;;5.12;39.70
61484;BME280;47349;55.640;37.692;2023-04-16T04:44:28;100771.09;;;5.28;39.93
61484;BME280;47349;55.640;37.692;2023-04-16T04:46:57;100771.00;;;5.41;39.53
61484;BME280;47349;55.640;37.692;2023-04-16T04:49:24;100767.75;;;5.49;38.54
61484;BME280;47349;55.640;37.692;2023-04-16T04:51:52;100758.97;;;5.59;39.18
61484;BME280;47349;55.640;37.692;2023-04-16T04:54:20;100773.75;;;5.75;39.45
61484;BME280;47349;55.640;37.692;2023-04-16T04:56:47;100775.19;;;5.79;38.39
61484;BME280;47349;55.640;37.692;2023-04-16T04:59:15;100778.63;;;5.81;39.01
61484;BME280;47349;55.640;37.692;2023-04-16T05:01:43;100766.75;;;5.85;38.96
61484;BME280;47349;55.640;37.692;2023-04-16T05:04:10;100760.22;;;5.89;38.67
61484;BME280;47349;55.640;37.692;2023-04-16T05:06:37;100768.94;;;5.91;38.76
61484;BME280;47349;55.640;37.692;2023-04-16T05:09:04;100777.44;;;5.96;38.77
61484;BME280;47349;55.640;37.692;2023-04-16T05:11:32;100773.94;;;5.96;38.23
61484;BME280;47349;55.640;37.692;2023-04-16T05:14:00;100767.78;;;5.95;38.53
61484;BME280;47349;55.640;37.692;2023-04-16T05:16:28;100775.50;;;5.98;38.03
61484;BME280;47349;55.640;37.692;2023-04-16T05:18:55;100770.66;;;6.03;38.56
61484;BME280;47349;55.640;37.692;2023-04-16T05:21:55;100778.78;;;6.13;38.56
61484;BME280;47349;55.640;37.692;2023-04-16T05:24:27;100777.72;;;6.15;37.47
61484;BME280;47349;55.640;37.692;2023-04-16T05:26:55;100770.69;;;6.14;37.40
61484;BME280;47349;55.640;37.692;2023-04-16T05:29:23;100769.34;;;6.09;37.95
61484;BME280;47349;55.640;37.692;2023-04-16T05:31:51;100769.47;;;6.07;38.25
61484;BME280;47349;55.640;37.692;2023-04-16T05:34:19;100771.16;;;6.08;38.91
61484;BME280;47349;55.640;37.692;2023-04-16T05:36:56;100772.75;;;6.22;37.99
61484;BME280;47349;55.640;37.692;2023-04-16T05:39:24;100764.63;;;6.24;37.24
61484;BME280;47349;55.640;37.692;2023-04-16T05:41:51;100771.41;;;6.28;37.87
61484;BME280;47349;55.640;37.692;2023-04-16T05:44:18;100772.63;;;6.35;37.75
61484;BME280;47349;55.640;37.692;2023-04-16T05:46:45;100766.19;;;6.49;37.72
61484;BME280;47349;55.640;37.692;2023-04-16T05:49:13;100769.69;;;6.60;37.46
61484;BME280;47349;55.640;37.692;2023-04-16T05:51:45;100767.22;;;6.80;37.17
61484;BME280;47349;55.640;37.692;2023-04-16T05:54:16;100770.59;;;6.93;36.19
61484;BME280;47349;55.640;37.692;2023-04-16T05:56:49;100769.09;;;7.00;35.97
61484;BME280;47349;55.640;37.692;2023-04-16T05:59:21;100762.16;;;7.09;36.40
61484;BME280;47349;55.640;37.692;2023-04-16T06:01:48;100758.88;;;7.16;35.82
61484;BME280;47349;55.640;37.692;2023-04-16T06:04:29;100760.56;;;7.17;36.09
61484;BME280;47349;55.640;37.692;2023-04-16T06:07:01;100765.25;;;7.25;35.65
61484;BME280;47349;55.640;37.692;2023-04-16T06:09:29;100761.25;;;7.31;36.15
61484;BME280;47349;55.640;37.692;2023-04-16T06:11:59;100761.88;;;7.44;35.48
61484;BME280;47349;55.640;37.692;2023-04-16T06:14:27;100751.88;;;7.57;34.94
61484;BME280;47349;55.640;37.692;2023-04-16T06:16:54;100755.28;;;7.59;34.86
61484;BME280;47349;55.640;37.692;2023-04-16T06:19:22;100757.13;;;7.68;34.52
61484;BME280;47349;55.640;37.692;2023-04-16T06:21:49;100748.44;;;7.66;34.18
61484;BME280;47349;55.640;37.692;2023-04-16T06:24:18;100754.53;;;7.78;34.28
61484;BME280;47349;55.640;37.692;2023-04-16T06:26:45;100751.53;;;7.92;34.45
61484;BME280;47349;55.640;37.692;2023-04-16T06:29:12;100745.66;;;7.98;34.04
61484;BME280;47349;55.640;37.692;2023-04-16T06:31:39;100748.44;;;8.18;33.50
61484;BME280;47349;55.640;37.692;2023-04-16T06:34:20;100754.84;;;8.36;33.19
61484;BME280;47349;55.640;37.692;2023-04-16T06:36:52;100750.41;;;8.46;33.32
61484;BME280;47349;55.640;37.692;2023-04-16T06:39:22;100750.00;;;8.51;31.93
61484;BME280;47349;55.640;37.692;2023-04-16T06:41:49;100749.00;;;8.52;31.73
61484;BME280;47349;55.640;37.692;2023-04-16T06:44:16;100748.63;;;8.66;32.13
61484;BME280;47349;55.640;37.692;2023-04-16T06:46:43;100751.00;;;8.69;31.96
61484;BME280;47349;55.640;37.692;2023-04-16T06:49:11;100742.03;;;8.80;31.65
61484;BME280;47349;55.640;37.692;2023-04-16T06:51:40;100735.72;;;8.91;31.73
61484;BME280;47349;55.640;37.692;2023-04-16T06:54:07;100737.69;;;9.08;31.90
61484;BME280;47349;55.640;37.692;2023-04-16T06:56:34;100738.97;;;9.23;31.07
61484;BME280;47349;55.640;37.692;2023-04-16T06:59:03;100738.41;;;9.30;31.39
61484;BME280;47349;55.640;37.692;2023-04-16T07:01:30;100740.66;;;9.24;30.60
61484;BME280;47349;55.640;37.692;2023-04-16T07:03:57;100742.34;;;9.35;30.14
61484;BME280;47349;55.640;37.692;2023-04-16T07:06:24;100731.91;;;9.42;30.46
61484;BME280;47349;55.640;37.692;2023-04-16T07:08:52;100735.53;;;9.60;30.06
61484;BME280;47349;55.640;37.692;2023-04-16T07:11:19;100733.84;;;9.59;29.27
61484;BME280;47349;55.640;37.692;2023-04-16T07:13:46;100734.94;;;9.66;28.01
61484;BME280;47349;55.640;37.692;2023-04-16T07:16:13;100730.88;;;9.72;27.86
61484;BME280;47349;55.640;37.692;2023-04-16T07:18:40;100734.66;;;9.79;26.53
61484;BME280;47349;55.640;37.692;2023-04-16T07:21:07;100728.59;;;9.87;27.30
61484;BME280;47349;55.640;37.692;2023-04-16T07:23:34;100719.81;;;9.94;25.39
61484;BME280;47349;55.640;37.692;2023-04-16T07:26:01;100727.47;;;9.79;24.45
61484;BME280;47349;55.640;37.692;2023-04-16T07:28:28;100722.50;;;9.85;24.89
61484;BME280;47349;55.640;37.692;2023-04-16T07:30:55;100729.41;;;9.97;24.09
61484;BME280;47349;55.640;37.692;2023-04-16T07:33:22;100717.50;;;10.09;23.95
61484;BME280;47349;55.640;37.692;2023-04-16T07:35:49;100723.84;;;10.08;22.99
61484;BME280;47349;55.640;37.692;2023-04-16T07:38:17;100726.47;;;10.18;23.16
61484;BME280;47349;55.640;37.692;2023-04-16T07:40:44;100730.53;;;10.32;23.31
61484;BME280;47349;55.640;37.692;2023-04-16T07:43:12;100723.13;;;10.43;23.26
61484;BME280;47349;55.640;37.692;2023-04-16T07:45:39;100725.97;;;10.42;23.29
61484;BME280;47349;55.640;37.692;2023-04-16T07:48:06;100730.16;;;10.54;24.02
61484;BME280;47349;55.640;37.692;2023-04-16T07:50:33;100723.78;;;10.55;21.54
61484;BME280;47349;55.640;37.692;2023-04-16T07:53:19;100722.63;;;10.40;22.04
61484;BME280;47349;55.640;37.692;2023-04-16T07:55:46;100722.94;;;10.27;23.13
61484;BME280;47349;55.640;37.692;2023-04-16T07:58:13;100719.50;;;10.35;23.05
61484;BME280;47349;55.640;37.692;2023-04-16T08:00:40;100710.13;;;10.48;24.56
61484;BME280;47349;55.640;37.692;2023-04-16T08:03:07;100713.47;;;10.60;22.98
61484;BME280;47349;55.640;37.692;2023-04-16T08:05:34;100706.94;;;10.63;22.34
61484;BME280;47349;55.640;37.692;2023-04-16T08:08:01;100701.84;;;10.69;23.31
61484;BME280;47349;55.640;37.692;2023-04-16T08:10:28;100707.25;;;10.77;21.80
61484;BME280;47349;55.640;37.692;2023-04-16T08:12:55;100699.22;;;10.77;21.51
61484;BME280;47349;55.640;37.692;2023-04-16T08:15:22;100692.88;;;10.96;23.23
61484;BME280;47349;55.640;37.692;2023-04-16T08:17:49;100704.16;;;11.00;22.12
61484;BME280;47349;55.640;37.692;2023-04-16T08:20:16;100701.22;;;11.11;21.29
61484;BME280;47349;55.640;37.692;2023-04-16T08:22:45;100693.97;;;11.03;20.64
61484;BME280;47349;55.640;37.692;2023-04-16T08:25:12;100696.47;;;11.05;20.40
61484;BME280;47349;55.640;37.692;2023-04-16T08:27:39;100695.09;;;11.01;21.26
61484;BME280;47349;55.640;37.692;2023-04-16T08:30:06;100692.66;;;11.07;20.36
61484;BME280;47349;55.640;37.692;2023-04-16T08:32:33;100693.88;;;11.13;20.99
61484;BME280;47349;55.640;37.692;2023-04-16T08:35:00;100693.53;;;11.16;21.03
61484;BME280;47349;55.640;37.692;2023-04-16T08:37:28;100690.78;;;11.26;20.48
61484;BME280;47349;55.640;37.692;2023-04-16T08:39:55;100679.94;;;11.36;21.31
61484;BME280;47349;55.640;37.692;2023-04-16T08:42:47;100679.00;;;11.45;21.91
61484;BME280;47349;55.640;37.692;2023-04-16T08:45:15;100671.31;;;11.50;20.80
61484;BME280;47349;55.640;37.692;2023-04-16T08:47:44;100671.03;;;11.53;21.03
61484;BME280;47349;55.640;37.692;2023-04-16T08:50:13;100663.97;;;11.52;20.78
61484;BME280;47349;55.640;37.692;2023-04-16T08:53:15;100672.69;;;11.54;21.21
61484;BME280;47349;55.640;37.692;2023-04-16T08:58:14;100668.06;;;11.64;20.38
61484;BME280;47349;55.640;37.692;2023-04-16T09:00:42;100664.88;;;11.61;21.16
61484;BME280;47349;55.640;37.692;2023-04-16T09:03:09;100659.63;;;11.51;21.36
61484;BME280;47349;55.640;37.692;2023-04-16T09:05:37;100661.69;;;11.39;21.61
61484;BME280;47349;55.640;37.692;2023-04-16T09:08:05;100653.84;;;11.46;22.06
61484;BME280;47349;55.640;37.692;2023-04-16T09:10:32;100648.88;;;11.51;21.08
61484;BME280;47349;55.640;37.692;2023-04-16T09:12:59;100650.97;;;11.39;20.91
61484;BME280;47349;55.640;37.692;2023-04-16T09:15:26;100651.88;;;11.48;20.96
61484;BME280;47349;55.640;37.692;2023-04-16T09:17:58;100655.59;;;11.55;20.94
61484;BME280;47349;55.640;37.692;2023-04-16T09:20:25;100646.22;;;11.59;21.56
61484;BME280;47349;55.640;37.692;2023-04-16T09:22:54;100640.59;;;11.70;21.18
61484;BME280;47349;55.640;37.692;2023-04-16T09:25:22;100637.75;;;11.72;21.41
61484;BME280;47349;55.640;37.692;2023-04-16T09:27:50;100637.44;;;11.75;21.64
61484;BME280;47349;55.640;37.692;2023-04-16T09:30:18;100647.75;;;11.88;21.20
61484;BME280;47349;55.640;37.692;2023-04-16T09:32:48;100648.47;;;11.98;21.07
61484;BME280;47349;55.640;37.692;2023-04-16T09:35:16;100651.50;;;12.03;21.62
61484;BME280;47349;55.640;37.692;2023-04-16T09:37:46;100641.66;;;12.12;21.50
61484;BME280;47349;55.640;37.692;2023-04-16T09:40:24;100646.50;;;12.08;21.30
61484;BME280;47349;55.640;37.692;2023-04-16T09:42:55;100643.97;;;12.06;21.66
61484;BME280;47349;55.640;37.692;2023-04-16T09:45:29;100653.22;;;12.12;21.21
61484;BME280;47349;55.640;37.692;2023-04-16T09:48:01;100639.69;;;12.30;21.42
61484;BME280;47349;55.640;37.692;2023-04-16T09:50:28;100637.19;;;12.28;21.24
61484;BME280;47349;55.640;37.692;2023-04-16T09:52:56;100649.47;;;12.39;20.58
61484;BME280;47349;55.640;37.692;2023-04-16T09:55:28;100639.72;;;12.46;20.48
61484;BME280;47349;55.640;37.692;2023-04-16T09:58:01;100640.22;;;12.33;20.86
61484;BME280;47349;55.640;37.692;2023-04-16T10:00:29;100640.00;;;12.27;20.66
61484;BME280;47349;55.640;37.692;2023-04-16T10:03:04;100630.47;;;12.41;20.82
61484;BME280;47349;55.640;37.692;2023-04-16T10:05:33;100629.78;;;12.30;21.12
61484;BME280;47349;55.640;37.692;2023-04-16T10:08:01;100629.47;;;12.42;20.91
61484;BME280;47349;55.640;37.692;2023-04-16T10:10:29;100632.16;;;12.42;22.24
61484;BME280;47349;55.640;37.692;2023-04-16T10:12:56;100630.81;;;12.46;21.07
61484;BME280;47349;55.640;37.692;2023-04-16T10:15:25;100630.00;;;12.61;21.13
61484;BME280;47349;55.640;37.692;2023-04-16T10:17:52;100630.03;;;12.70;21.12
61484;BME280;47349;55.640;37.692;2023-04-16T10:20:20;100628.03;;;12.88;21.40
61484;BME280;47349;55.640;37.692;2023-04-16T10:22:48;100625.50;;;12.86;20.42
61484;BME280;47349;55.640;37.692;2023-04-16T10:25:15;100632.91;;;12.93;20.81
61484;BME280;47349;55.640;37.692;2023-04-16T10:27:43;100626.50;;;12.85;20.66
61484;BME280;47349;55.640;37.692;2023-04-16T10:30:22;100623.47;;;12.89;20.74
61484;BME280;47349;55.640;37.692;2023-04-16T10:32:50;100609.34;;;13.19;20.81
61484;BME280;47349;55.640;37.692;2023-04-16T10:35:20;100615.25;;;13.31;20.67
61484;BME280;47349;55.640;37.692;2023-04-16T10:37:47;100603.63;;;13.38;20.43
61484;BME280;47349;55.640;37.692;2023-04-16T10:40:25;100605.31;;;13.31;19.90
61484;BME280;47349;55.640;37.692;2023-04-16T10:42:57;100605.00;;;13.34;19.94
61484;BME280;47349;55.640;37.692;2023-04-16T10:45:47;100601.94;;;13.37;19.84
61484;BME280;47349;55.640;37.692;2023-04-16T10:48:13;100593.22;;;13.35;20.09
61484;BME280;47349;55.640;37.692;2023-04-16T10:50:56;100596.03;;;13.34;19.75
61484;BME280;47349;55.640;37.692;2023-04-16T10:53:30;100589.34;;;13.22;19.80
61484;BME280;47349;55.640;37.692;2023-04-16T10:56:16;100595.06;;;13.27;20.43
61484;BME280;47349;55.640;37.692;2023-04-16T10:58:48;100594.88;;;13.45;20.04
61484;BME280;47349;55.640;37.692;2023-04-16T11:01:33;100605.59;;;13.53;20.21
61484;BME280;47349;55.640;37.692;2023-04-16T11:09:59;100590.16;;;13.38;19.68
61484;BME280;47349;55.640;37.692;2023-04-16T11:12:43;100592.81;;;13.55;19.54
61484;BME280;47349;55.640;37.692;2023-04-16T11:15:15;100590.78;;;13.57;20.18
61484;BME280;47349;55.640;37.692;2023-04-16T11:17:55;100574.31;;;13.44;19.97
61484;BME280;47349;55.640;37.692;2023-04-16T11:20:24;100577.28;;;13.65;19.54
61484;BME280;47349;55.640;37.692;2023-04-16T11:23:06;100581.44;;;13.84;19.82
61484;BME280;47349;55.640;37.692;2023-04-16T11:25:40;100571.63;;;13.91;19.58
61484;BME280;47349;55.640;37.692;2023-04-16T11:28:10;100557.56;;;14.12;19.35
61484;BME280;47349;55.640;37.692;2023-04-16T11:30:38;100567.88;;;14.31;19.04
61484;BME280;47349;55.640;37.692;2023-04-16T11:33:08;100565.50;;;14.59;19.57
61484;BME280;47349;55.640;37.692;2023-04-16T11:35:37;100552.44;;;14.71;20.06
61484;BME280;47349;55.640;37.692;2023-04-16T11:38:18;100553.03;;;14.81;19.46
61484;BME280;47349;55.640;37.692;2023-04-16T11:40:45;100558.44;;;14.81;18.81
61484;BME280;47349;55.640;37.692;2023-04-16T11:43:16;100555.06;;;14.79;18.83
61484;BME280;47349;55.640;37.692;2023-04-16T11:45:56;100555.75;;;14.96;19.34
61484;BME280;47349;55.640;37.692;2023-04-16T11:48:24;100549.56;;;15.25;18.37
61484;BME280;47349;55.640;37.692;2023-04-16T11:51:05;100541.75;;;15.30;18.67
61484;BME280;47349;55.640;37.692;2023-04-16T11:53:33;100544.53;;;15.52;18.50
61484;BME280;47349;55.640;37.692;2023-04-16T11:56:13;100532.53;;;15.84;18.28
61484;BME280;47349;55.640;37.692;2023-04-16T12:01:53;100537.31;;;16.39;18.17
61484;BME280;47349;55.640;37.692;2023-04-16T12:04:37;100520.44;;;16.59;18.20
61484;BME280;47349;55.640;37.692;2023-04-16T12:07:12;100535.31;;;16.27;17.69
61484;BME280;47349;55.640;37.692;2023-04-16T12:10:03;100518.22;;;16.48;17.95
61484;BME280;47349;55.640;37.692;2023-04-16T12:12:34;100524.16;;;16.58;17.66
61484;BME280;47349;55.640;37.692;2023-04-16T12:15:03;100514.91;;;16.95;17.46
61484;BME280;47349;55.640;37.692;2023-04-16T12:17:44;100511.41;;;17.29;17.25
61484;BME280;47349;55.640;37.692;2023-04-16T12:20:37;100509.81;;;17.41;17.17
61484;BME280;47349;55.640;37.692;2023-04-16T12:23:25;100507.47;;;17.73;16.42
61484;BME280;47349;55.640;37.692;2023-04-16T12:25:53;100510.78;;;17.34;17.23
61484;BME280;47349;55.640;37.692;2023-04-16T12:28:35;100508.34;;;17.11;17.96
61484;BME280;47349;55.640;37.692;2023-04-16T12:31:09;100497.13;;;17.14;17.55
61484;BME280;47349;55.640;37.692;2023-04-16T12:34:02;100499.81;;;17.07;17.11
61484;BME280;47349;55.640;37.692;2023-04-16T12:36:29;100495.38;;;17.00;17.13
61484;BME280;47349;55.640;37.692;2023-04-16T12:39:06;100492.44;;;17.29;17.06
61484;BME280;47349;55.640;37.692;2023-04-16T12:41:35;100495.06;;;17.51;17.19
61484;BME280;47349;55.640;37.692;2023-04-16T12:44:08;100493.91;;;17.32;17.93
61484;BME280;47349;55.640;37.692;2023-04-16T12:47:08;100487.25;;;17.34;17.86
61484;BME280;47349;55.640;37.692;2023-04-16T12:49:37;100491.31;;;17.52;17.31
61484;BME280;47349;55.640;37.692;2023-04-16T12:52:20;100483.44;;;17.22;18.19
61484;BME280;47349;55.640;37.692;2023-04-16T12:55:01;100476.81;;;17.31;16.72
61484;BME280;47349;55.640;37.692;2023-04-16T12:57:29;100480.91;;;17.20;17.24
61484;BME280;47349;55.640;37.692;2023-04-16T13:00:05;100472.63;;;17.29;17.30
61484;BME280;47349;55.640;37.692;2023-04-16T13:02:34;100472.41;;;17.65;16.75
61484;BME280;47349;55.640;37.692;2023-04-16T13:05:06;100466.03;;;17.86;16.65
61484;BME280;47349;55.640;37.692;2023-04-16T13:07:34;100467.03;;;17.78;16.77
61484;BME280;47349;55.640;37.692;2023-04-16T13:10:15;100463.16;;;17.53;17.11
61484;BME280;47349;55.640;37.692;2023-04-16T13:12:57;100466.31;;;17.63;16.93